createdAt,value
2023-01-27T00:01:08.998Z,10.95
2023-01-27T00:03:35.644Z,10.90
2023-01-27T00:06:04.729Z,12.23
2023-01-27T00:08:33.629Z,11.45
2023-01-27T00:11:19.705Z,10.80
2023-01-27T00:13:46.432Z,11.25
2023-01-27T00:16:13.050Z,10.93
2023-01-27T00:18:39.671Z,12.10
2023-01-27T00:21:25.067Z,10.98
2023-01-27T00:24:10.127Z,11.80
2023-01-27T00:26:36.685Z,11.35
2023-01-27T00:29:03.281Z,11.15
2023-01-27T00:31:48.397Z,11.05
2023-01-27T00:34:17.719Z,10.93
2023-01-27T00:36:49.366Z,11.57
2023-01-27T00:39:16.134Z,11.30
2023-01-27T00:41:47.520Z,11.30
2023-01-27T00:44:14.166Z,10.65
2023-01-27T00:46:44.326Z,12.18
2023-01-27T00:49:16.913Z,10.57
2023-01-27T00:51:43.826Z,10.27
2023-01-27T00:54:11.040Z,10.73
2023-01-27T00:56:40.860Z,10.30
2023-01-27T00:59:13.116Z,9.45
2023-01-27T01:01:42.046Z,10.35
2023-01-27T01:04:11.233Z,10.43
2023-01-27T01:06:40.266Z,10.02
2023-01-27T01:09:06.876Z,10.80
2023-01-27T01:11:35.746Z,10.10
2023-01-27T01:14:02.341Z,10.40
2023-01-27T01:16:29.355Z,10.90
2023-01-27T01:18:57.853Z,11.10
2023-01-27T01:21:26.908Z,10.23
2023-01-27T01:23:56.508Z,10.20
2023-01-27T01:26:28.098Z,10.10
2023-01-27T01:28:59.589Z,11.02
2023-01-27T01:31:26.301Z,10.32
2023-01-27T01:33:52.912Z,10.57
2023-01-27T01:36:25.185Z,11.18
2023-01-27T01:38:56.689Z,11.07
2023-01-27T01:41:28.744Z,9.68
2023-01-27T01:43:55.403Z,11.30
2023-01-27T01:46:24.342Z,9.90
2023-01-27T01:49:01.282Z,11.23
2023-01-27T01:51:30.623Z,9.88
2023-01-27T01:54:09.613Z,9.73
2023-01-27T01:56:43.094Z,9.00
2023-01-27T01:59:36.485Z,9.25
2023-01-27T02:02:10.951Z,8.70
2023-01-27T02:04:47.137Z,9.57
2023-01-27T02:07:18.178Z,9.07
2023-01-27T02:09:44.795Z,8.77
2023-01-27T02:12:13.795Z,8.38
2023-01-27T02:14:41.438Z,8.65
2023-01-27T02:17:11.310Z,8.05
2023-01-27T02:19:56.112Z,8.65
2023-01-27T02:22:38.663Z,7.82
2023-01-27T02:25:26.107Z,7.85
2023-01-27T02:27:54.981Z,7.10
2023-01-27T02:30:22.293Z,7.43
2023-01-27T02:32:54.388Z,7.68
2023-01-27T02:35:49.649Z,6.43
2023-01-27T02:38:21.793Z,7.55
2023-01-27T02:40:52.341Z,6.50
2023-01-27T02:43:23.529Z,6.68
2023-01-27T02:45:50.199Z,6.43
2023-01-27T02:48:16.904Z,6.30
2023-01-27T02:50:43.452Z,6.22
2023-01-27T02:53:10.022Z,5.85
2023-01-27T02:55:38.779Z,6.60
2023-01-27T02:58:05.368Z,6.85
2023-01-27T03:00:34.906Z,6.20
2023-01-27T03:03:03.885Z,6.00
2023-01-27T03:05:30.465Z,6.45
2023-01-27T03:07:57.084Z,6.13
2023-01-27T03:10:23.742Z,6.00
2023-01-27T03:12:50.305Z,5.65
2023-01-27T03:15:38.321Z,6.30
2023-01-27T03:20:50.330Z,5.55
2023-01-27T03:23:19.440Z,6.07
2023-01-27T03:25:48.203Z,5.78
2023-01-27T03:28:15.612Z,6.50
2023-01-27T03:30:42.248Z,5.88
2023-01-27T03:33:11.394Z,7.05
2023-01-27T03:35:39.160Z,6.32
2023-01-27T03:38:32.849Z,7.00
2023-01-27T03:41:23.678Z,7.28
2023-01-27T03:44:08.711Z,5.75
2023-01-27T03:46:35.345Z,5.40
2023-01-27T03:49:04.274Z,6.00
2023-01-27T03:51:30.896Z,6.55
2023-01-27T03:54:00.998Z,7.03
2023-01-27T03:56:27.622Z,5.95
2023-01-27T03:58:56.477Z,6.05
2023-01-27T04:01:26.706Z,6.20
2023-01-27T04:04:11.717Z,6.60
2023-01-27T04:06:54.322Z,6.68
2023-01-27T04:09:29.985Z,6.13
2023-01-27T04:14:37.874Z,5.45
2023-01-27T04:17:13.364Z,5.82
2023-01-27T04:19:42.871Z,5.80
2023-01-27T04:24:36.960Z,6.40
2023-01-27T04:27:11.958Z,6.45
2023-01-27T04:29:42.837Z,5.68
2023-01-27T04:32:13.632Z,5.88
2023-01-27T04:34:40.611Z,6.63
2023-01-27T04:37:10.491Z,5.95
2023-01-27T04:39:37.101Z,7.25
2023-01-27T04:42:06.405Z,5.72
2023-01-27T04:44:33.197Z,5.70
2023-01-27T04:47:01.930Z,5.93
2023-01-27T04:49:28.608Z,6.00
2023-01-27T04:51:58.100Z,5.63
2023-01-27T04:57:03.761Z,5.70
2023-01-27T04:59:30.585Z,5.53
2023-01-27T05:01:57.219Z,5.22
2023-01-27T05:04:26.928Z,6.05
2023-01-27T05:06:56.022Z,6.60
2023-01-27T05:09:25.500Z,6.22
2023-01-27T05:11:54.640Z,6.53
2023-01-27T05:14:23.567Z,6.40
2023-01-27T05:16:50.277Z,5.75
2023-01-27T05:19:16.938Z,5.82
2023-01-27T05:21:48.264Z,6.65
2023-01-27T05:24:19.634Z,4.80
2023-01-27T05:26:46.441Z,5.65
2023-01-27T05:29:15.296Z,5.47
2023-01-27T05:31:44.504Z,6.90
2023-01-27T05:34:13.627Z,5.38
2023-01-27T05:36:40.228Z,5.78
2023-01-27T05:39:10.022Z,5.43
2023-01-27T05:41:39.234Z,5.78
2023-01-27T05:44:06.419Z,5.85
2023-01-27T05:46:38.077Z,5.32
2023-01-27T05:49:05.574Z,4.70
2023-01-27T05:51:40.087Z,6.25
2023-01-27T05:54:10.240Z,5.75
2023-01-27T05:56:39.252Z,5.13
2023-01-27T05:59:09.417Z,5.35
2023-01-27T06:01:45.918Z,6.05
2023-01-27T06:04:12.505Z,6.50
2023-01-27T06:06:42.105Z,5.18
2023-01-27T06:09:10.576Z,4.97
2023-01-27T06:11:43.419Z,4.65
2023-01-27T06:14:10.029Z,4.63
2023-01-27T06:16:36.795Z,5.10
2023-01-27T06:19:05.815Z,4.95
2023-01-27T06:21:34.871Z,4.35
2023-01-27T06:24:04.290Z,4.72
2023-01-27T06:29:00.435Z,4.00
2023-01-27T06:31:27.655Z,4.15
2023-01-27T06:33:54.420Z,4.57
2023-01-27T06:36:22.659Z,5.30
2023-01-27T06:38:50.434Z,5.28
2023-01-27T06:41:17.505Z,4.22
2023-01-27T06:43:44.068Z,4.05
2023-01-27T06:46:13.417Z,5.13
2023-01-27T06:48:42.698Z,4.05
2023-01-27T06:53:38.853Z,3.85
2023-01-27T06:58:34.431Z,4.47
2023-01-27T07:01:03.257Z,4.20
2023-01-27T07:03:32.543Z,3.58
2023-01-27T07:05:59.262Z,3.60
2023-01-27T07:08:31.128Z,3.65
2023-01-27T07:11:05.355Z,4.15
2023-01-27T07:13:36.667Z,4.25
2023-01-27T07:16:03.408Z,4.45
2023-01-27T07:18:33.377Z,3.65
2023-01-27T07:21:02.192Z,3.45
2023-01-27T07:23:28.727Z,4.10
2023-01-27T07:26:00.983Z,3.85
2023-01-27T07:28:27.665Z,3.65
2023-01-27T07:30:57.214Z,4.22
2023-01-27T07:33:23.789Z,3.58
2023-01-27T07:35:55.465Z,4.50
2023-01-27T07:38:22.000Z,3.45
2023-01-27T07:40:48.724Z,4.47
2023-01-27T07:43:15.481Z,4.47
2023-01-27T07:45:44.621Z,3.90
2023-01-27T07:48:13.700Z,4.18
2023-01-27T07:50:42.016Z,4.65
2023-01-27T07:53:11.057Z,3.95
2023-01-27T07:55:37.758Z,4.07
2023-01-27T07:58:04.519Z,4.57
2023-01-27T08:00:34.541Z,4.75
2023-01-27T08:03:06.265Z,4.82
2023-01-27T08:05:34.634Z,4.25
2023-01-27T08:08:04.395Z,4.60
2023-01-27T08:10:35.683Z,4.25
2023-01-27T08:13:02.295Z,4.53
2023-01-27T08:15:28.983Z,4.40
2023-01-27T08:17:59.313Z,4.55
2023-01-27T08:20:29.917Z,4.97
2023-01-27T08:22:58.976Z,4.13
2023-01-27T08:25:28.098Z,3.60
2023-01-27T08:27:56.321Z,4.18
2023-01-27T08:30:23.113Z,4.18
2023-01-27T08:32:50.005Z,5.20
2023-01-27T08:35:19.278Z,4.40
2023-01-27T08:37:48.449Z,3.75
2023-01-27T08:40:16.200Z,3.67
2023-01-27T08:42:42.947Z,3.38
2023-01-27T08:45:12.024Z,4.05
2023-01-27T08:47:38.782Z,4.38
2023-01-27T08:50:05.654Z,4.13
2023-01-27T08:52:34.451Z,4.28
2023-01-27T08:55:06.025Z,4.65
2023-01-27T08:57:33.779Z,4.40
2023-01-27T09:00:01.274Z,3.55
2023-01-27T09:02:28.124Z,3.95
2023-01-27T09:04:54.728Z,3.70
2023-01-27T09:07:23.558Z,3.90
2023-01-27T09:09:55.997Z,3.63
2023-01-27T09:12:27.830Z,4.22
2023-01-27T09:14:54.409Z,3.10
2023-01-27T09:17:23.038Z,3.97
2023-01-27T09:19:49.572Z,4.18
2023-01-27T09:22:18.510Z,4.00
2023-01-27T09:24:47.642Z,4.20
2023-01-27T09:27:14.229Z,3.13
2023-01-27T09:30:41.140Z,3.70
2023-01-27T09:33:09.106Z,3.90
2023-01-27T09:35:52.219Z,5.13
2023-01-27T09:38:23.338Z,4.63
2023-01-27T09:41:54.633Z,4.47
2023-01-27T09:44:42.857Z,3.30
2023-01-27T09:47:40.476Z,4.40
2023-01-27T09:50:29.262Z,4.15
2023-01-27T09:53:14.549Z,3.97
2023-01-27T09:56:01.968Z,4.68
2023-01-27T09:58:55.037Z,3.63
2023-01-27T10:01:41.107Z,4.35
2023-01-27T10:04:26.202Z,4.45
2023-01-27T10:07:20.217Z,4.65
2023-01-27T10:09:52.547Z,4.05
2023-01-27T10:12:37.850Z,3.72
2023-01-27T10:15:23.717Z,3.83
2023-01-27T10:18:19.493Z,4.07
2023-01-27T10:21:27.402Z,3.70
2023-01-27T10:23:59.970Z,3.90
2023-01-27T10:26:49.988Z,3.72
2023-01-27T10:29:36.396Z,4.53
2023-01-27T10:32:13.836Z,4.07
2023-01-27T10:34:52.707Z,4.00
2023-01-27T10:37:22.250Z,4.30
2023-01-27T10:40:12.389Z,4.18
2023-01-27T10:42:57.157Z,4.15
2023-01-27T10:45:38.023Z,4.03
2023-01-27T10:48:18.964Z,4.32
2023-01-27T10:51:19.625Z,4.65
2023-01-27T10:53:58.305Z,3.95
2023-01-27T10:56:48.029Z,3.65
2023-01-27T10:59:29.794Z,4.00
2023-01-27T11:02:03.296Z,4.25
2023-01-27T11:04:44.104Z,3.85
2023-01-27T11:07:17.814Z,4.18
2023-01-27T11:09:52.700Z,4.43
2023-01-27T11:12:28.870Z,4.47
2023-01-27T11:15:00.411Z,4.68
2023-01-27T11:17:53.856Z,4.47
2023-01-27T11:20:23.262Z,4.88
2023-01-27T11:23:12.929Z,4.10
2023-01-27T11:26:10.559Z,3.70
2023-01-27T11:29:04.845Z,3.65
2023-01-27T11:31:38.102Z,4.97
2023-01-27T11:34:30.775Z,4.30
2023-01-27T11:36:58.108Z,4.35
2023-01-27T11:39:30.553Z,4.40
2023-01-27T11:41:59.613Z,3.90
2023-01-27T11:44:31.589Z,4.18
2023-01-27T11:47:00.911Z,4.35
2023-01-27T11:49:30.913Z,3.10
2023-01-27T11:52:05.937Z,4.07
2023-01-27T11:54:45.331Z,4.22
2023-01-27T11:57:25.894Z,4.18
2023-01-27T12:00:01.358Z,4.25
2023-01-27T12:02:35.236Z,4.30
2023-01-27T12:05:10.423Z,4.53
2023-01-27T12:08:00.294Z,4.47
2023-01-27T12:10:28.193Z,4.10
2023-01-27T12:12:58.309Z,4.60
2023-01-27T12:15:30.123Z,4.30
2023-01-27T12:18:00.004Z,3.65
2023-01-27T12:20:35.826Z,3.95
2023-01-27T12:23:27.085Z,4.88
2023-01-27T12:26:00.386Z,4.75
2023-01-27T12:28:29.996Z,4.85
2023-01-27T12:31:04.936Z,7.03
2023-01-27T12:33:33.608Z,5.32
2023-01-27T12:36:14.773Z,5.40
2023-01-27T12:38:54.366Z,5.20
2023-01-27T12:41:33.293Z,5.45
2023-01-27T12:44:18.400Z,5.97
2023-01-27T12:47:06.956Z,5.70
2023-01-27T12:49:40.616Z,4.38
2023-01-27T12:52:16.977Z,5.60
2023-01-27T12:54:43.633Z,6.10
2023-01-27T12:57:19.478Z,6.28
2023-01-27T12:59:54.908Z,6.28
2023-01-27T13:02:32.410Z,6.45
2023-01-27T13:05:03.347Z,7.28
2023-01-27T13:07:51.457Z,6.45
2023-01-27T13:10:25.440Z,6.78
2023-01-27T13:12:59.517Z,7.65
2023-01-27T13:15:31.193Z,6.15
2023-01-27T13:18:13.188Z,6.85
2023-01-27T13:20:46.812Z,6.30
2023-01-27T13:23:19.465Z,5.78
2023-01-27T13:25:54.669Z,6.82
2023-01-27T13:28:53.140Z,6.55
2023-01-27T13:31:40.450Z,7.65
2023-01-27T13:34:23.596Z,8.27
2023-01-27T13:37:02.611Z,6.93
2023-01-27T13:39:43.843Z,7.95
2023-01-27T13:42:55.221Z,7.32
2023-01-27T13:45:25.167Z,7.20
2023-01-27T13:47:57.808Z,7.68
2023-01-27T13:50:36.238Z,7.30
2023-01-27T13:53:03.906Z,7.15
2023-01-27T13:55:32.915Z,8.10
2023-01-27T13:58:17.268Z,7.47
2023-01-27T14:01:16.555Z,7.80
2023-01-27T14:04:07.334Z,8.05
2023-01-27T14:07:03.170Z,7.78
2023-01-27T14:09:54.511Z,8.23
2023-01-27T14:12:31.696Z,8.80
2023-01-27T14:15:16.545Z,7.43
2023-01-27T14:17:54.639Z,7.93
2023-01-27T14:20:40.094Z,8.18
2023-01-27T14:23:37.319Z,8.45
2023-01-27T14:26:04.058Z,7.90
2023-01-27T14:28:44.832Z,7.43
2023-01-27T14:31:25.798Z,8.25
2023-01-27T14:34:20.417Z,8.73
2023-01-27T14:37:10.900Z,8.90
2023-01-27T14:40:03.828Z,9.57
2023-01-27T14:42:40.910Z,7.97
2023-01-27T14:45:17.934Z,7.60
2023-01-27T14:47:44.589Z,8.15
2023-01-27T14:50:20.762Z,8.90
2023-01-27T14:53:05.536Z,8.50
2023-01-27T14:55:44.929Z,7.28
2023-01-27T14:58:35.133Z,7.78
2023-01-27T15:01:07.190Z,8.80
2023-01-27T15:03:52.513Z,7.90
2023-01-27T15:06:22.094Z,8.13
2023-01-27T15:08:51.782Z,8.38
2023-01-27T15:11:44.082Z,8.80
2023-01-27T15:14:16.317Z,8.23
2023-01-27T15:16:52.363Z,7.63
2023-01-27T15:19:36.677Z,8.23
2023-01-27T15:22:31.404Z,8.80
2023-01-27T15:25:19.642Z,8.75
2023-01-27T15:27:48.533Z,7.95
2023-01-27T15:30:29.614Z,7.68
2023-01-27T15:32:58.722Z,7.85
2023-01-27T15:35:28.084Z,7.80
2023-01-27T15:40:48.809Z,7.88
2023-01-27T15:43:15.631Z,7.60
2023-01-27T15:45:50.616Z,7.65
2023-01-27T15:48:24.460Z,7.80
2023-01-27T15:51:12.207Z,7.70
2023-01-27T15:53:56.081Z,7.78
2023-01-27T15:56:46.880Z,7.38
2023-01-27T15:59:18.477Z,8.60
2023-01-27T16:01:48.880Z,8.68
2023-01-27T16:04:28.083Z,7.28
2023-01-27T16:07:06.378Z,7.78
2023-01-27T16:09:46.026Z,7.07
2023-01-27T16:12:26.981Z,6.95
2023-01-27T16:15:15.724Z,8.13
2023-01-27T16:18:07.164Z,7.55
2023-01-27T16:20:55.132Z,6.90
2023-01-27T16:27:05.470Z,7.13
2023-01-27T16:29:50.312Z,6.78
2023-01-27T16:32:22.608Z,8.02
2023-01-27T16:34:55.904Z,7.30
2023-01-27T16:37:51.842Z,7.80
2023-01-27T16:40:23.814Z,7.70
2023-01-27T16:42:57.117Z,7.88
2023-01-27T16:45:40.123Z,7.05
2023-01-27T16:48:16.041Z,7.18
2023-01-27T16:50:44.106Z,6.97
2023-01-27T16:53:19.810Z,6.85
2023-01-27T16:56:01.591Z,6.07
2023-01-27T16:58:45.515Z,7.07
2023-01-27T17:01:48.517Z,6.65
2023-01-27T17:04:26.861Z,7.00
2023-01-27T17:06:58.049Z,7.60
2023-01-27T17:09:32.138Z,6.82
2023-01-27T17:11:59.398Z,6.25
2023-01-27T17:14:38.455Z,6.68
2023-01-27T17:17:17.252Z,6.18
2023-01-27T17:19:48.420Z,6.53
2023-01-27T17:22:41.480Z,6.70
2023-01-27T17:25:27.920Z,6.85
2023-01-27T17:27:58.550Z,6.32
2023-01-27T17:30:27.959Z,6.70
2023-01-27T17:32:58.373Z,6.15
2023-01-27T17:35:26.490Z,6.55
2023-01-27T17:38:07.726Z,7.47
2023-01-27T17:40:41.399Z,6.20
2023-01-27T17:43:29.823Z,6.82
2023-01-27T17:46:21.016Z,7.15
2023-01-27T17:49:19.547Z,6.82
2023-01-27T17:51:51.565Z,6.18
2023-01-27T17:54:30.519Z,7.47
2023-01-27T17:57:04.340Z,7.05
2023-01-27T17:59:31.596Z,6.22
2023-01-27T18:02:04.635Z,5.75
2023-01-27T18:04:38.226Z,6.68
2023-01-27T18:07:07.373Z,5.60
2023-01-27T18:09:36.328Z,6.20
2023-01-27T18:12:05.096Z,5.28
2023-01-27T18:14:34.567Z,6.63
2023-01-27T18:19:30.726Z,5.68
2023-01-27T18:22:12.467Z,5.72
2023-01-27T18:24:40.669Z,5.50
2023-01-27T18:27:25.717Z,6.70
2023-01-27T18:29:56.947Z,6.07
2023-01-27T18:32:24.615Z,7.60
2023-01-27T18:34:56.105Z,6.53
2023-01-27T18:37:35.959Z,7.07
2023-01-27T18:40:24.843Z,6.35
2023-01-27T18:43:00.261Z,6.38
2023-01-27T18:45:27.900Z,6.72
2023-01-27T18:47:55.459Z,6.15
2023-01-27T18:50:26.171Z,6.95
2023-01-27T18:52:55.739Z,6.70
2023-01-27T18:56:17.790Z,6.72
2023-01-27T18:58:18.183Z,6.07
2023-01-27T19:00:52.527Z,5.90
2023-01-27T19:03:26.999Z,6.50
2023-01-27T19:05:56.343Z,6.85
2023-01-27T19:08:25.036Z,6.97
2023-01-27T19:10:52.577Z,6.68
2023-01-27T19:13:19.334Z,8.07
2023-01-27T19:15:58.194Z,7.40
2023-01-27T19:18:38.817Z,7.35
2023-01-27T19:21:08.173Z,6.53
2023-01-27T19:23:39.520Z,6.88
2023-01-27T19:26:15.359Z,6.72
2023-01-27T19:28:42.208Z,7.13
2023-01-27T19:31:08.840Z,6.78
2023-01-27T19:33:37.235Z,6.65
2023-01-27T19:36:26.925Z,6.68
2023-01-27T19:39:11.689Z,6.78
2023-01-27T19:41:41.744Z,6.82
2023-01-27T19:46:55.744Z,6.57
2023-01-27T19:53:14.961Z,7.13
2023-01-27T20:07:58.141Z,6.60
2023-01-27T20:10:31.639Z,6.82
2023-01-27T20:13:36.229Z,6.80
2023-01-27T20:16:05.500Z,7.72
2023-01-27T20:18:43.880Z,7.20
2023-01-27T20:21:17.733Z,8.38
2023-01-27T20:27:01.748Z,7.97
2023-01-27T20:29:33.210Z,8.32
2023-01-27T20:32:04.293Z,7.20
2023-01-27T20:34:53.569Z,9.38
2023-01-27T20:37:39.905Z,8.75
2023-01-27T20:41:27.387Z,8.73
2023-01-27T20:44:03.169Z,8.05
2023-01-27T20:46:39.121Z,8.55
2023-01-27T20:49:08.403Z,8.73
2023-01-27T20:51:34.969Z,9.27
2023-01-27T20:54:01.578Z,9.02
2023-01-27T20:56:28.136Z,8.43
2023-01-27T20:59:03.869Z,9.20
2023-01-27T21:01:43.420Z,9.07
2023-01-27T21:04:17.424Z,9.68
2023-01-27T21:06:54.325Z,8.55
2023-01-27T21:09:32.295Z,9.85
2023-01-27T21:12:23.952Z,9.38
2023-01-27T21:17:37.989Z,9.32
2023-01-27T21:20:05.211Z,8.93
2023-01-27T21:22:32.389Z,8.32
2023-01-27T21:24:58.978Z,9.65
2023-01-27T21:27:25.624Z,9.52
2023-01-27T21:29:54.645Z,8.82
2023-01-27T21:32:21.254Z,9.75
2023-01-27T21:34:47.844Z,9.13
2023-01-27T21:37:14.414Z,9.40
2023-01-27T21:39:40.973Z,8.88
2023-01-27T21:42:14.465Z,9.63
2023-01-27T21:45:01.804Z,8.82
2023-01-27T21:47:30.621Z,9.45
2023-01-27T21:50:04.118Z,10.20
2023-01-27T21:52:35.387Z,8.68
2023-01-27T21:55:04.397Z,7.85
2023-01-27T21:57:33.502Z,9.82
2023-01-27T22:00:00.153Z,8.93
2023-01-27T22:02:26.866Z,8.73
2023-01-27T22:04:55.802Z,10.18
2023-01-27T22:07:22.563Z,8.43
2023-01-27T22:09:49.286Z,9.73
2023-01-27T22:12:19.127Z,8.55
2023-01-27T22:14:48.280Z,10.18
2023-01-27T22:17:15.264Z,9.88
2023-01-27T22:19:41.886Z,9.98
2023-01-27T22:22:11.960Z,9.57
2023-01-27T22:24:43.222Z,9.25
2023-01-27T22:27:09.902Z,9.05
2023-01-27T22:29:36.492Z,8.82
2023-01-27T22:32:03.392Z,8.68
2023-01-27T22:34:30.235Z,8.93
2023-01-27T22:36:56.840Z,11.45
2023-01-27T22:39:23.625Z,9.88
2023-01-27T22:41:52.968Z,9.73
2023-01-27T22:46:52.819Z,8.73
2023-01-27T22:49:21.847Z,8.52
2023-01-27T22:51:51.430Z,9.30
2023-01-27T22:54:18.045Z,8.90
2023-01-27T22:56:44.635Z,8.68
2023-01-27T22:59:13.167Z,8.85
2023-01-27T23:01:44.402Z,8.90
2023-01-27T23:04:12.169Z,9.18
2023-01-27T23:06:38.715Z,9.57
2023-01-27T23:09:05.285Z,8.63
2023-01-27T23:11:34.093Z,9.20
2023-01-27T23:14:04.086Z,9.90
2023-01-27T23:16:31.647Z,8.88
2023-01-27T23:19:00.696Z,9.25
2023-01-27T23:21:31.454Z,9.18
2023-01-27T23:23:58.121Z,9.27
2023-01-27T23:26:24.758Z,9.85
2023-01-27T23:28:53.565Z,9.07
2023-01-27T23:31:20.332Z,10.25
2023-01-27T23:33:49.292Z,10.02
2023-01-27T23:36:15.857Z,10.00
2023-01-27T23:38:46.781Z,8.60
2023-01-27T23:41:18.167Z,10.02
2023-01-27T23:43:56.287Z,6.63
2023-01-27T23:46:24.771Z,9.20
2023-01-27T23:48:55.423Z,9.30
2023-01-27T23:51:25.778Z,9.38
2023-01-27T23:54:03.098Z,9.35
2023-01-27T23:56:32.459Z,7.60
